createdAt,value
2023-04-23T00:02:03.083Z,100738.00
2023-04-23T00:04:34.100Z,100738.88
2023-04-23T00:07:02.085Z,100738.84
2023-04-23T00:09:32.475Z,100743.91
2023-04-23T00:12:02.125Z,100740.41
2023-04-23T00:14:31.048Z,100735.16
2023-04-23T00:16:59.686Z,100732.47
2023-04-23T00:19:27.216Z,100748.84
2023-04-23T00:21:54.763Z,100734.16
2023-04-23T00:24:22.545Z,100739.38
2023-04-23T00:26:53.539Z,100749.69
2023-04-23T00:29:21.133Z,100736.69
2023-04-23T00:31:49.305Z,100731.50
2023-04-23T00:34:16.974Z,100732.34
2023-04-23T00:36:45.175Z,100732.34
2023-04-23T00:39:12.904Z,100730.63
2023-04-23T00:41:41.711Z,100727.22
2023-04-23T00:44:09.834Z,100726.41
2023-04-23T00:46:38.543Z,100725.50
2023-04-23T00:49:06.059Z,100727.19
2023-04-23T00:51:33.785Z,100723.69
2023-04-23T00:54:02.217Z,100724.50
2023-04-23T00:56:30.280Z,100721.91
2023-04-23T00:58:58.241Z,100719.31
2023-04-23T01:01:26.298Z,100722.81
2023-04-23T01:03:53.927Z,100721.00
2023-04-23T01:06:21.617Z,100723.63
2023-04-23T01:08:49.286Z,100718.38
2023-04-23T01:11:16.932Z,100721.00
2023-04-23T01:13:44.608Z,100719.25
2023-04-23T01:16:12.621Z,100715.84
2023-04-23T01:18:41.267Z,100718.47
2023-04-23T01:21:10.065Z,100715.88
2023-04-23T01:23:38.065Z,100716.75
2023-04-23T01:26:06.076Z,100710.63
2023-04-23T01:28:33.614Z,100708.81
2023-04-23T01:31:00.888Z,100710.47
2023-04-23T01:33:28.665Z,100710.47
2023-04-23T01:35:55.574Z,100711.41
2023-04-23T01:38:23.666Z,100709.59
2023-04-23T01:40:51.908Z,100710.47
2023-04-23T01:43:19.954Z,100713.94
2023-04-23T01:45:47.994Z,100717.41
2023-04-23T01:48:15.257Z,100719.16
2023-04-23T01:50:43.277Z,100729.44
2023-04-23T01:53:10.543Z,100717.28
2023-04-23T01:55:39.517Z,100725.09
2023-04-23T01:58:07.249Z,100724.22
2023-04-23T02:00:35.176Z,100721.56
2023-04-23T02:03:03.308Z,100716.44
2023-04-23T02:05:31.596Z,100721.63
2023-04-23T02:07:59.405Z,100718.16
2023-04-23T02:10:27.214Z,100714.66
2023-04-23T02:12:55.113Z,100718.88
2023-04-23T02:15:23.204Z,100716.25
2023-04-23T02:17:52.354Z,100720.66
2023-04-23T02:20:19.890Z,100718.09
2023-04-23T02:22:48.221Z,100715.53
2023-04-23T02:25:17.029Z,100722.41
2023-04-23T02:27:45.552Z,100715.50
2023-04-23T02:30:14.334Z,100724.97
2023-04-23T02:32:43.243Z,100723.25
2023-04-23T02:35:11.043Z,100719.72
2023-04-23T02:37:38.435Z,100714.53
2023-04-23T02:40:09.198Z,100710.19
2023-04-23T02:42:37.535Z,100710.97
2023-04-23T02:45:07.383Z,100712.69
2023-04-23T02:47:34.515Z,100711.78
2023-04-23T02:50:05.975Z,100709.19
2023-04-23T02:52:34.381Z,100710.91
2023-04-23T02:55:02.622Z,100705.72
2023-04-23T02:57:30.559Z,100708.31
2023-04-23T02:59:58.724Z,100707.50
2023-04-23T03:02:26.549Z,100715.28
2023-04-23T03:04:54.634Z,100712.69
2023-04-23T03:07:22.634Z,100709.19
2023-04-23T03:09:50.290Z,100716.09
2023-04-23T03:12:18.322Z,100704.06
2023-04-23T03:14:45.902Z,100708.34
2023-04-23T03:17:14.055Z,100704.84
2023-04-23T03:19:41.723Z,100706.53
2023-04-23T03:22:10.032Z,100703.91
2023-04-23T03:24:38.000Z,100703.88
2023-04-23T03:27:06.962Z,100698.72
2023-04-23T03:29:34.564Z,100699.66
2023-04-23T03:32:02.740Z,100693.56
2023-04-23T03:34:30.597Z,100701.34
2023-04-23T03:36:58.741Z,100707.38
2023-04-23T03:39:26.860Z,100711.66
2023-04-23T03:41:54.484Z,100721.13
2023-04-23T03:44:22.397Z,100716.78
2023-04-23T03:46:50.031Z,100715.94
2023-04-23T03:49:17.725Z,100706.41
2023-04-23T03:51:45.560Z,100712.47
2023-04-23T03:54:19.719Z,100709.91
2023-04-23T03:56:47.911Z,100719.38
2023-04-23T03:59:16.043Z,100714.94
2023-04-23T04:01:44.340Z,100720.88
2023-04-23T04:04:12.219Z,100716.66
2023-04-23T04:06:40.488Z,100702.66
2023-04-23T04:09:09.045Z,100712.06
2023-04-23T04:11:38.057Z,100707.72
2023-04-23T04:14:06.137Z,100702.53
2023-04-23T04:16:34.544Z,100707.69
2023-04-23T04:19:02.880Z,100704.28
2023-04-23T04:21:30.866Z,100701.63
2023-04-23T04:23:58.940Z,100710.28
2023-04-23T04:26:27.019Z,100713.66
2023-04-23T04:28:55.063Z,100707.56
2023-04-23T04:31:22.952Z,100714.41
2023-04-23T04:33:50.936Z,100714.34
2023-04-23T04:36:19.072Z,100711.81
2023-04-23T04:38:46.683Z,100712.75
2023-04-23T04:41:14.981Z,100710.22
2023-04-23T04:43:43.738Z,100711.97
2023-04-23T04:46:11.974Z,100717.19
2023-04-23T04:48:40.439Z,100711.97
2023-04-23T04:51:07.931Z,100714.53
2023-04-23T04:53:36.147Z,100714.53
2023-04-23T04:56:03.822Z,100718.88
2023-04-23T04:58:31.790Z,100722.34
2023-04-23T05:00:59.700Z,100726.69
2023-04-23T05:03:27.572Z,100725.03
2023-04-23T05:05:56.532Z,100729.44
2023-04-23T05:08:24.260Z,100726.06
2023-04-23T05:10:51.898Z,100727.06
2023-04-23T05:13:19.899Z,100731.50
2023-04-23T05:15:48.222Z,100733.31
2023-04-23T05:18:16.235Z,100734.19
2023-04-23T05:20:43.292Z,100738.59
2023-04-23T05:23:11.421Z,100731.81
2023-04-23T05:25:40.611Z,100744.91
2023-04-23T05:28:08.939Z,100741.50
2023-04-23T05:30:36.594Z,100746.75
2023-04-23T05:33:04.214Z,100742.44
2023-04-23T05:35:32.067Z,100745.03
2023-04-23T05:38:00.022Z,100738.97
2023-04-23T05:40:28.037Z,100741.53
2023-04-23T05:42:56.039Z,100736.44
2023-04-23T05:45:24.308Z,100745.09
2023-04-23T05:47:51.980Z,100737.34
2023-04-23T05:50:20.697Z,100737.38
2023-04-23T05:52:50.270Z,100738.31
2023-04-23T05:55:18.494Z,100738.31
2023-04-23T05:57:46.531Z,100736.59
2023-04-23T06:00:16.014Z,100741.88
2023-04-23T06:02:44.573Z,100746.25
2023-04-23T06:05:12.780Z,100747.16
2023-04-23T06:07:41.529Z,100751.59
2023-04-23T06:10:10.522Z,100752.56
2023-04-23T06:12:39.576Z,100749.22
2023-04-23T06:15:10.107Z,100750.16
2023-04-23T06:17:37.453Z,100743.34
2023-04-23T06:20:11.981Z,100743.38
2023-04-23T06:22:39.765Z,100746.00
2023-04-23T06:25:10.248Z,100743.44
2023-04-23T06:27:43.879Z,100745.97
2023-04-23T06:30:13.786Z,100753.72
2023-04-23T06:32:41.459Z,100752.88
2023-04-23T06:35:11.054Z,100750.28
2023-04-23T06:37:39.120Z,100753.81
2023-04-23T06:40:08.533Z,100747.81
2023-04-23T06:42:37.079Z,100753.06
2023-04-23T06:45:10.324Z,100744.50
2023-04-23T06:47:38.623Z,100755.03
2023-04-23T06:50:10.196Z,100753.34
2023-04-23T06:52:37.541Z,100755.16
2023-04-23T06:55:06.804Z,100742.16
2023-04-23T06:57:35.148Z,100748.22
2023-04-23T07:00:02.948Z,100740.44
2023-04-23T07:02:34.249Z,100739.56
2023-04-23T07:05:02.477Z,100745.66
2023-04-23T07:07:30.550Z,100745.63
2023-04-23T07:09:58.174Z,100747.38
2023-04-23T07:12:25.371Z,100750.00
2023-04-23T07:14:54.420Z,100737.81
2023-04-23T07:17:22.090Z,100743.00
2023-04-23T07:19:50.274Z,100748.25
2023-04-23T07:22:18.243Z,100749.16
2023-04-23T07:24:45.923Z,100751.78
2023-04-23T07:27:14.450Z,100738.75
2023-04-23T07:29:43.402Z,100745.69
2023-04-23T07:32:10.968Z,100737.84
2023-04-23T07:34:44.263Z,100749.97
2023-04-23T07:37:12.704Z,100748.22
2023-04-23T07:39:44.837Z,100744.72
2023-04-23T07:42:13.841Z,100752.56
2023-04-23T07:44:41.937Z,100748.22
2023-04-23T07:47:09.493Z,100743.84
2023-04-23T07:49:37.494Z,100746.44
2023-04-23T07:52:05.948Z,100748.16
2023-04-23T07:54:33.740Z,100754.22
2023-04-23T07:57:01.414Z,100746.38
2023-04-23T07:59:29.423Z,100740.22
2023-04-23T08:01:57.395Z,100753.25
2023-04-23T08:04:27.458Z,100748.84
2023-04-23T08:06:55.354Z,100750.56
2023-04-23T08:09:23.619Z,100743.56
2023-04-23T08:11:51.271Z,100743.53
2023-04-23T08:14:18.917Z,100746.94
2023-04-23T08:16:47.084Z,100747.84
2023-04-23T08:19:15.272Z,100744.34
2023-04-23T08:21:43.266Z,100746.94
2023-04-23T08:24:10.874Z,100749.50
2023-04-23T08:26:38.921Z,100750.31
2023-04-23T08:29:06.148Z,100748.50
2023-04-23T08:31:34.234Z,100748.41
2023-04-23T08:34:02.488Z,100744.03
2023-04-23T08:36:30.066Z,100733.53
2023-04-23T08:38:57.922Z,100730.00
2023-04-23T08:41:26.625Z,100733.47
2023-04-23T08:44:01.626Z,100735.06
2023-04-23T08:46:29.351Z,100744.53
2023-04-23T08:48:57.218Z,100748.81
2023-04-23T08:51:25.264Z,100744.34
2023-04-23T08:53:55.232Z,100735.50
2023-04-23T08:56:22.473Z,100734.56
2023-04-23T08:58:51.215Z,100734.53
2023-04-23T09:01:19.446Z,100734.56
2023-04-23T09:03:47.606Z,100733.66
2023-04-23T09:06:15.705Z,100733.59
2023-04-23T09:08:43.905Z,100729.13
2023-04-23T09:11:12.002Z,100732.47
2023-04-23T09:13:41.557Z,100732.31
2023-04-23T09:16:10.282Z,100736.66
2023-04-23T09:18:38.733Z,100724.38
2023-04-23T09:21:06.541Z,100720.88
2023-04-23T09:23:34.657Z,100726.00
2023-04-23T09:26:08.330Z,100719.94
2023-04-23T09:28:36.755Z,100712.75
2023-04-23T09:31:06.263Z,100714.44
2023-04-23T09:33:36.456Z,100711.78
2023-04-23T09:36:12.285Z,100711.63
2023-04-23T09:38:42.220Z,100694.81
2023-04-23T09:41:26.699Z,100706.03
2023-04-23T09:43:56.662Z,100701.56
2023-04-23T09:46:48.945Z,100699.22
2023-04-23T09:49:16.465Z,100699.94
2023-04-23T09:51:44.985Z,100704.09
2023-04-23T09:54:21.955Z,100707.53
2023-04-23T09:56:57.697Z,100701.53
2023-04-23T09:59:45.446Z,100707.63
2023-04-23T10:02:14.526Z,100700.56
2023-04-23T10:04:42.518Z,100705.66
2023-04-23T10:07:19.596Z,100707.28
2023-04-23T10:09:48.254Z,100701.88
2023-04-23T10:14:46.826Z,100705.00
2023-04-23T10:17:14.791Z,100696.22
2023-04-23T10:19:43.539Z,100704.75
2023-04-23T10:22:19.350Z,100704.66
2023-04-23T10:24:49.429Z,100698.28
2023-04-23T10:27:30.659Z,100690.41
2023-04-23T10:30:06.521Z,100690.59
2023-04-23T10:32:37.608Z,100687.38
2023-04-23T10:35:07.537Z,100690.72
2023-04-23T10:37:35.588Z,100694.88
2023-04-23T10:40:15.328Z,100698.94
2023-04-23T10:42:43.470Z,100688.25
2023-04-23T10:47:49.194Z,100687.91
2023-04-23T10:50:30.800Z,100683.19
2023-04-23T10:52:59.027Z,100681.34
2023-04-23T10:55:28.062Z,100681.03
2023-04-23T10:58:01.534Z,100678.28
2023-04-23T11:00:51.038Z,100674.41
2023-04-23T11:03:32.584Z,100666.78
2023-04-23T11:06:04.129Z,100665.63
2023-04-23T11:08:34.667Z,100667.34
2023-04-23T11:11:02.547Z,100660.91
2023-04-23T11:13:30.057Z,100668.00
2023-04-23T11:16:21.767Z,100666.31
2023-04-23T11:19:03.992Z,100664.41
2023-04-23T11:21:56.582Z,100656.91
2023-04-23T11:24:25.285Z,100652.75
2023-04-23T11:26:55.017Z,100640.28
2023-04-23T11:29:23.800Z,100643.31
2023-04-23T11:32:01.839Z,100638.69
2023-04-23T11:34:30.576Z,100635.00
2023-04-23T11:36:59.132Z,100628.38
2023-04-23T11:39:27.570Z,100625.72
2023-04-23T11:41:55.059Z,100624.25
2023-04-23T11:44:22.782Z,100613.25
2023-04-23T11:46:50.255Z,100610.28
2023-04-23T11:49:18.126Z,100608.63
2023-04-23T11:51:45.893Z,100604.53
2023-04-23T11:54:13.883Z,100594.38
2023-04-23T11:56:42.053Z,100596.25
2023-04-23T11:59:09.790Z,100587.91
2023-04-23T12:01:47.023Z,100592.78
2023-04-23T12:04:41.722Z,100581.16
2023-04-23T12:07:25.791Z,100572.94
2023-04-23T12:09:53.712Z,100577.66
2023-04-23T12:12:21.764Z,100579.69
2023-04-23T12:14:49.905Z,100580.63
2023-04-23T12:17:17.473Z,100572.84
2023-04-23T12:19:45.081Z,100576.59
2023-04-23T12:22:12.927Z,100573.38
2023-04-23T12:24:51.668Z,100583.88
2023-04-23T12:27:20.545Z,100574.63
2023-04-23T12:29:48.620Z,100570.28
2023-04-23T12:32:15.960Z,100576.31
2023-04-23T12:34:53.588Z,100570.53
2023-04-23T12:37:26.642Z,100572.19
2023-04-23T12:39:55.581Z,100568.66
2023-04-23T12:42:22.457Z,100562.81
2023-04-23T12:44:51.805Z,100562.47
2023-04-23T12:47:25.235Z,100560.63
2023-04-23T12:49:56.830Z,100556.50
2023-04-23T12:52:24.136Z,100554.47
2023-04-23T12:54:56.981Z,100549.59
2023-04-23T12:57:25.369Z,100553.25
2023-04-23T12:59:54.984Z,100538.72
2023-04-23T13:02:23.371Z,100538.59
2023-04-23T13:04:51.273Z,100532.72
2023-04-23T13:07:18.866Z,100535.06
2023-04-23T13:09:55.363Z,100534.00
2023-04-23T13:12:25.479Z,100529.56
2023-04-23T13:14:53.219Z,100520.88
2023-04-23T13:17:21.462Z,100516.19
2023-04-23T13:19:49.105Z,100513.97
2023-04-23T13:22:17.288Z,100516.78
2023-04-23T13:24:45.707Z,100508.19
2023-04-23T13:27:13.636Z,100503.00
2023-04-23T13:29:42.047Z,100508.69
2023-04-23T13:32:10.923Z,100501.75
2023-04-23T13:34:39.006Z,100495.94
2023-04-23T13:37:09.346Z,100488.44
2023-04-23T13:39:39.943Z,100476.91
2023-04-23T13:42:10.194Z,100480.09
2023-04-23T13:44:38.551Z,100479.31
2023-04-23T13:47:07.663Z,100489.84
2023-04-23T13:49:36.073Z,100477.50
2023-04-23T13:52:07.319Z,100479.56
2023-04-23T13:54:36.006Z,100470.38
2023-04-23T13:57:03.737Z,100472.06
2023-04-23T13:59:31.421Z,100465.50
2023-04-23T14:01:59.911Z,100460.06
2023-04-23T14:04:27.927Z,100465.59
2023-04-23T14:06:55.693Z,100465.34
2023-04-23T14:09:23.529Z,100453.94
2023-04-23T14:11:51.629Z,100454.25
2023-04-23T14:14:21.441Z,100451.31
2023-04-23T14:16:49.879Z,100446.31
2023-04-23T14:19:18.447Z,100446.84
2023-04-23T14:21:46.747Z,100433.72
2023-04-23T14:24:26.942Z,100424.19
2023-04-23T14:26:54.469Z,100433.56
2023-04-23T14:29:31.551Z,100438.78
2023-04-23T14:31:59.061Z,100430.03
2023-04-23T14:34:27.520Z,100444.09
2023-04-23T14:36:55.084Z,100432.53
2023-04-23T14:39:26.893Z,100435.91
2023-04-23T14:41:54.473Z,100428.28
2023-04-23T14:44:26.696Z,100420.38
2023-04-23T14:46:54.625Z,100427.59
2023-04-23T14:49:22.702Z,100424.69
2023-04-23T14:51:51.079Z,100426.25
2023-04-23T14:54:19.048Z,100424.19
2023-04-23T14:56:47.351Z,100423.31
2023-04-23T14:59:15.160Z,100419.91
2023-04-23T15:01:43.521Z,100422.47
2023-04-23T15:04:12.005Z,100422.78
2023-04-23T15:06:40.790Z,100427.88
2023-04-23T15:09:09.197Z,100429.16
2023-04-23T15:11:37.993Z,100426.38
2023-04-23T15:14:11.370Z,100427.09
2023-04-23T15:19:12.840Z,100416.72
2023-04-23T15:21:42.903Z,100414.53
2023-04-23T15:24:11.116Z,100410.72
2023-04-23T15:26:38.796Z,100409.53
2023-04-23T15:29:09.147Z,100412.69
2023-04-23T15:31:38.339Z,100410.13
2023-04-23T15:34:09.639Z,100410.59
2023-04-23T15:36:38.083Z,100413.88
2023-04-23T15:39:07.383Z,100405.09
2023-04-23T15:41:39.432Z,100407.53
2023-04-23T15:44:13.373Z,100410.25
2023-04-23T15:46:41.126Z,100406.84
2023-04-23T15:49:08.886Z,100397.69
2023-04-23T15:51:36.689Z,100396.41
2023-04-23T15:54:08.117Z,100397.22
2023-04-23T15:56:37.506Z,100396.25
2023-04-23T15:59:04.791Z,100392.00
2023-04-23T16:01:32.822Z,100392.94
2023-04-23T16:04:10.362Z,100392.06
2023-04-23T16:06:39.269Z,100381.97
2023-04-23T16:09:09.352Z,100380.19
2023-04-23T16:11:37.215Z,100380.59
2023-04-23T16:14:05.606Z,100378.06
2023-04-23T16:16:33.341Z,100371.66
2023-04-23T16:19:02.636Z,100370.09
2023-04-23T16:21:31.340Z,100364.53
2023-04-23T16:23:58.906Z,100360.47
2023-04-23T16:26:26.428Z,100365.88
2023-04-23T16:29:05.504Z,100353.59
2023-04-23T16:31:39.801Z,100355.25
2023-04-23T16:34:07.529Z,100356.13
2023-04-23T16:36:35.297Z,100357.19
2023-04-23T16:39:10.467Z,100355.75
2023-04-23T16:41:37.973Z,100357.72
2023-04-23T16:44:05.870Z,100353.38
2023-04-23T16:46:33.635Z,100351.88
2023-04-23T16:49:01.292Z,100352.09
2023-04-23T16:51:29.682Z,100346.31
2023-04-23T16:53:58.099Z,100343.34
2023-04-23T16:56:24.790Z,100339.34
2023-04-23T16:58:52.052Z,100336.84
2023-04-23T17:01:19.744Z,100336.22
2023-04-23T17:03:48.003Z,100326.94
2023-04-23T17:06:27.731Z,100333.25
2023-04-23T17:08:55.912Z,100330.28
2023-04-23T17:11:24.731Z,100328.00
2023-04-23T17:13:57.716Z,100321.34
2023-04-23T17:16:27.913Z,100319.00
2023-04-23T17:18:55.852Z,100317.56
2023-04-23T17:21:23.804Z,100316.09
2023-04-23T17:23:50.541Z,100309.41
2023-04-23T17:26:18.565Z,100309.72
2023-04-23T17:28:47.118Z,100304.75
2023-04-23T17:31:15.634Z,100307.69
2023-04-23T17:33:49.662Z,100308.06
2023-04-23T17:36:17.699Z,100314.28
2023-04-23T17:38:45.939Z,100311.03
2023-04-23T17:41:13.925Z,100306.81
2023-04-23T17:43:41.944Z,100313.22
2023-04-23T17:46:09.617Z,100320.59
2023-04-23T17:48:37.193Z,100306.91
2023-04-23T17:51:05.220Z,100301.84
2023-04-23T17:53:33.283Z,100300.31
2023-04-23T17:56:03.053Z,100289.22
2023-04-23T17:58:30.888Z,100282.41
2023-04-23T18:00:59.165Z,100285.31
2023-04-23T18:03:27.903Z,100275.09
2023-04-23T18:05:55.423Z,100277.91
2023-04-23T18:08:23.375Z,100292.00
2023-04-23T18:10:51.452Z,100287.03
2023-04-23T18:13:19.166Z,100294.22
2023-04-23T18:15:49.955Z,100284.72
2023-04-23T18:18:18.939Z,100291.81
2023-04-23T18:20:47.638Z,100292.91
2023-04-23T18:23:15.592Z,100302.63
2023-04-23T18:25:44.082Z,100313.16
2023-04-23T18:28:12.061Z,100315.03
2023-04-23T18:30:39.404Z,100315.19
2023-04-23T18:33:25.456Z,100317.94
2023-04-23T18:35:54.091Z,100316.25
2023-04-23T18:38:41.710Z,100318.94
2023-04-23T18:41:09.333Z,100323.38
2023-04-23T18:43:37.108Z,100324.34
2023-04-23T18:46:04.255Z,100320.94
2023-04-23T18:48:34.218Z,100323.63
2023-04-23T18:51:15.821Z,100320.16
2023-04-23T18:53:43.607Z,100321.13
2023-04-23T18:56:11.103Z,100313.28
2023-04-23T18:58:39.019Z,100320.25
2023-04-23T19:01:06.716Z,100313.28
2023-04-23T19:03:34.362Z,100318.53
2023-04-23T19:06:07.357Z,100312.50
2023-04-23T19:08:36.433Z,100311.66
2023-04-23T19:11:04.197Z,100315.22
2023-04-23T19:13:38.141Z,100312.03
2023-04-23T19:16:06.038Z,100302.56
2023-04-23T19:18:34.789Z,100313.97
2023-04-23T19:21:02.423Z,100315.81
2023-04-23T19:23:30.088Z,100319.50
2023-04-23T19:25:58.206Z,100315.06
2023-04-23T19:28:26.085Z,100306.47
2023-04-23T19:30:55.859Z,100301.31
2023-04-23T19:33:35.924Z,100295.28
2023-04-23T19:36:03.608Z,100297.03
2023-04-23T19:38:41.379Z,100294.47
2023-04-23T19:41:09.003Z,100287.66
2023-04-23T19:43:36.542Z,100286.06
2023-04-23T19:46:04.680Z,100281.69
2023-04-23T19:48:44.471Z,100293.06
2023-04-23T19:51:11.163Z,100292.25
2023-04-23T19:53:38.882Z,100292.28
2023-04-23T19:56:09.123Z,100287.94
2023-04-23T19:58:36.912Z,100293.22
2023-04-23T20:01:04.578Z,100298.44
2023-04-23T20:03:34.693Z,100298.44
2023-04-23T20:06:02.383Z,100297.59
2023-04-23T20:08:41.452Z,100291.47
2023-04-23T20:11:11.863Z,100293.22
2023-04-23T20:13:39.564Z,100295.00
2023-04-23T20:16:08.372Z,100298.50
2023-04-23T20:18:38.814Z,100295.91
2023-04-23T20:21:06.435Z,100296.75
2023-04-23T20:23:34.373Z,100298.50
2023-04-23T20:26:01.559Z,100297.63
2023-04-23T20:28:29.209Z,100287.16
2023-04-23T20:30:56.846Z,100287.19
2023-04-23T20:33:24.549Z,100282.88
2023-04-23T20:35:51.892Z,100284.66
2023-04-23T20:38:39.308Z,100282.03
2023-04-23T20:41:10.104Z,100281.09
2023-04-23T20:43:42.645Z,100276.75
2023-04-23T20:46:10.398Z,100275.03
2023-04-23T20:48:39.379Z,100274.25
2023-04-23T20:51:08.622Z,100275.19
2023-04-23T20:53:40.173Z,100278.66
2023-04-23T20:56:07.928Z,100275.19
2023-04-23T20:58:36.426Z,100282.19
2023-04-23T21:01:04.943Z,100283.09
2023-04-23T21:03:33.155Z,100278.75
2023-04-23T21:06:00.903Z,100280.53
2023-04-23T21:08:28.969Z,100271.88
2023-04-23T21:10:56.058Z,100275.34
2023-04-23T21:13:23.249Z,100276.25
2023-04-23T21:15:50.903Z,100279.69
2023-04-23T21:18:19.313Z,100274.53
2023-04-23T21:20:47.245Z,100278.09
2023-04-23T21:23:15.446Z,100283.31
2023-04-23T21:25:43.194Z,100282.47
2023-04-23T21:28:11.025Z,100272.91
2023-04-23T21:30:51.018Z,100283.34
2023-04-23T21:33:18.921Z,100282.53
2023-04-23T21:35:46.272Z,100285.16
2023-04-23T21:38:14.657Z,100285.22
2023-04-23T21:40:41.820Z,100284.41
2023-04-23T21:43:09.409Z,100287.03
2023-04-23T21:45:37.220Z,100288.78
2023-04-23T21:48:04.274Z,100280.97
2023-04-23T21:50:32.426Z,100280.13
2023-04-23T21:53:00.625Z,100280.13
2023-04-23T21:55:27.985Z,100278.41
2023-04-23T21:58:03.285Z,100276.66
2023-04-23T22:00:42.623Z,100279.31
2023-04-23T22:03:11.388Z,100277.59
2023-04-23T22:05:38.975Z,100274.13
2023-04-23T22:08:09.672Z,100268.06
2023-04-23T22:10:42.909Z,100268.91
2023-04-23T22:13:11.216Z,100273.22
2023-04-23T22:15:38.476Z,100278.44
2023-04-23T22:18:06.663Z,100268.06
2023-04-23T22:20:34.159Z,100264.56
2023-04-23T22:23:02.163Z,100261.94
2023-04-23T22:25:29.632Z,100264.56
2023-04-23T22:27:57.656Z,100261.94
2023-04-23T22:30:26.212Z,100262.78
2023-04-23T22:32:54.266Z,100255.88
2023-04-23T22:35:22.661Z,100255.88
2023-04-23T22:37:50.336Z,100258.47
2023-04-23T22:40:17.561Z,100242.84
2023-04-23T22:42:45.925Z,100242.84
2023-04-23T22:45:13.446Z,100241.16
2023-04-23T22:47:41.936Z,100236.81
2023-04-23T22:50:12.256Z,100231.59
2023-04-23T22:52:39.956Z,100229.03
2023-04-23T22:55:09.998Z,100219.47
2023-04-23T22:57:40.392Z,100223.88
2023-04-23T23:00:13.855Z,100223.88
2023-04-23T23:02:41.687Z,100219.53
2023-04-23T23:05:09.780Z,100220.38
2023-04-23T23:07:37.247Z,100216.06
2023-04-23T23:10:08.603Z,100209.97
2023-04-23T23:12:39.504Z,100216.06
2023-04-23T23:15:09.089Z,100210.91
2023-04-23T23:17:37.132Z,100212.66
2023-04-23T23:20:09.998Z,100206.63
2023-04-23T23:22:38.569Z,100206.63
2023-04-23T23:25:07.615Z,100205.78
2023-04-23T23:27:35.727Z,100198.81
2023-04-23T23:30:06.055Z,100197.13
2023-04-23T23:32:33.846Z,100188.47
2023-04-23T23:35:01.962Z,100188.47
2023-04-23T23:37:30.398Z,100181.50
2023-04-23T23:39:58.272Z,100181.44
2023-04-23T23:42:25.958Z,100178.00
2023-04-23T23:44:53.914Z,100184.09
2023-04-23T23:47:21.582Z,100193.66
2023-04-23T23:49:52.443Z,100173.75
2023-04-23T23:52:20.167Z,100166.78
2023-04-23T23:54:48.087Z,100170.28
2023-04-23T23:57:15.955Z,100165.97
2023-04-23T23:59:44.528Z,100167.69
